Leary, Texas
Current Conditions -  °F | °C
As of 10:53 AM on Wednesday 26 Nov 2014 (Local Time) from KTXK Reporting Station
Clear Clear  
Wind Chill: 57°   Ceiling: Unl
Heat Index: 57°   Visibility: 10mi
Dew Point: 30°   Wind: 14mph
Humidity: 36%   Direction: 280°W
Pressure: 30.09"   Gusts: 23mph
Location:  33.474°N, 94.2882°W
Report Text: KTXK 261653Z 28012G20KT 10SM CLR 14/M01 A3009 RMK AO2 SLP189 T01391011
Loading
Personal Weather Stations






























Interactive Weather Map New forecast layout! Learn more

10-Day Weather Forecast

Advertisements
Track Severe Weather on mobile